KTEB/TEB METAR and TAF weather

Enter ICAO airport designator
Station Type Date Time Source
KTEB METAR 2019/05/25 14:51 UTC NOAA

KTEB 251451Z 20009KT 10SM CLR 19/10 A3023 RMK AO2 SLP235 T01940100 57000


Station Type Date Time Source
KTEB Decoded METAR 2019/05/25 14:51 UTC NOAA

TETERBORO AIRPORT, NJ, United States (KTEB) 40-52N 74-03W 7M
May 25, 2019 - 10:51 AM EDT / 2019.05.25 1451 UTC
Wind: from the SSW (200 degrees) at 10 MPH (9 KT):0
Visibility: 10 mile(s):0
Sky conditions: clear
Temperature: 66.9 F (19.4 C)
Dew Point: 50.0 F (10.0 C)
Relative Humidity: 54%
Pressure (altimeter): 30.23 in. Hg (1023 hPa)
Pressure tendency: 0.00 inches (0.0 hPa) lower than three hours ago
ob: KTEB 251451Z 20009KT 10SM CLR 19/10 A3023 RMK AO2 SLP235 T01940100 57000
cycle: 15

Station Type Date Time Source
KTEB TAF 2019/05/25 15:51 UTC NOAA

TAF
AMD KTEB 251448Z 2515/2618 18008KT P6SM SCT040 BKN250
FM251800 18010KT P6SM SCT050 BKN120
FM260000 19008KT P6SM BKN050 OVC100
FM260300 19008KT P6SM VCSH SCT025 OVC040
TEMPO 2604/2608 4SM SHRA BKN025
FM260800 22006KT P6SM BKN020 OVC040
FM261200 29006KT P6SM BKN015 BKN040
FM261500 25008KT P6SM SCT020 SCT050

Example: see airport list